Time;durP1;ratioP1;P1;durP2;ratioP2;P2;SDS_P1;SDS_P2;PMS_P1;PMS_P2;Temp;Humidity;BMP_temperature;BMP_pressure;BME280_temperature;BME280_humidity;BME280_pressure;Samples;Min_cycle;Max_cycle;Signal;HPM_P1;HPM_P2
2023/08/03 00:01:08;;;;;;;4.57;2.35;;;;;;;21.41;50.80;98878.97;5066593;28;20600;-59
2023/08/03 00:03:36;;;;;;;2.28;2.00;;;;;;;21.41;50.81;98889.44;5062663;28;20737;-59
2023/08/03 00:06:04;;;;;;;3.35;2.30;;;;;;;21.46;50.82;98891.72;5065581;28;20198;-60
2023/08/03 00:08:33;;;;;;;4.10;1.67;;;;;;;21.46;50.93;98882.06;5066110;28;20201;-59
2023/08/03 00:11:01;;;;;;;2.60;1.65;;;;;;;21.48;51.33;98884.59;5065483;28;20263;-59
2023/08/03 00:13:29;;;;;;;3.22;2.05;;;;;;;21.46;51.19;98876.81;5064702;28;20728;-59
2023/08/03 00:15:58;;;;;;;1.90;1.70;;;;;;;21.48;50.98;98865.41;5069136;28;20643;-60
2023/08/03 00:18:28;;;;;;;2.38;1.80;;;;;;;21.45;50.85;98869.91;5066000;28;20756;-60
2023/08/03 00:20:56;;;;;;;2.65;2.05;;;;;;;21.44;50.96;98862.19;5066672;28;20645;-60
2023/08/03 00:23:24;;;;;;;2.40;1.98;;;;;;;21.46;51.09;98860.25;5066976;28;20212;-60
2023/08/03 00:25:53;;;;;;;4.82;1.75;;;;;;;21.47;50.90;98861.97;5068268;28;20237;-60
2023/08/03 00:28:22;;;;;;;4.68;1.95;;;;;;;21.46;51.13;98860.25;5064115;28;20247;-61
2023/08/03 00:30:50;;;;;;;3.65;2.20;;;;;;;21.47;51.30;98861.97;5064481;28;20302;-60
2023/08/03 00:33:18;;;;;;;3.85;1.50;;;;;;;21.46;51.51;98857.66;5064492;28;20263;-61
2023/08/03 00:35:46;;;;;;;3.53;1.60;;;;;;;21.47;51.71;98851.47;5065500;28;20220;-58
2023/08/03 00:38:14;;;;;;;3.17;1.98;;;;;;;21.41;51.60;98841.44;5067357;28;20584;-59
2023/08/03 00:40:42;;;;;;;5.47;2.13;;;;;;;21.41;51.49;98842.28;5066672;28;20197;-61
2023/08/03 00:43:11;;;;;;;4.93;1.88;;;;;;;21.41;51.73;98851.94;5068866;28;20302;-61
2023/08/03 00:45:39;;;;;;;2.58;1.90;;;;;;;21.40;51.98;98847.66;5069129;28;20236;-60
2023/08/03 00:48:07;;;;;;;4.28;2.10;;;;;;;21.39;51.85;98838.09;5066322;28;20268;-60
2023/08/03 00:50:36;;;;;;;3.25;1.95;;;;;;;21.36;51.92;98847.03;5061074;28;20224;-62
2023/08/03 00:53:04;;;;;;;2.03;1.80;;;;;;;21.33;51.80;98849.88;5063778;28;20234;-59
2023/08/03 00:55:32;;;;;;;2.25;1.92;;;;;;;21.33;51.86;98856.88;5062145;28;20689;-63
2023/08/03 00:58:00;;;;;;;3.55;1.98;;;;;;;21.33;52.33;98851.66;5064711;28;20212;-60
2023/08/03 01:00:29;;;;;;;3.08;1.90;;;;;;;21.30;52.76;98839.59;5067640;28;20208;-60
2023/08/03 01:02:57;;;;;;;2.30;1.83;;;;;;;21.29;52.87;98834.47;5068405;28;20197;-59
2023/08/03 01:05:26;;;;;;;2.58;1.88;;;;;;;21.29;53.36;98830.06;5064986;28;20201;-60
2023/08/03 01:07:56;;;;;;;1.67;1.58;;;;;;;21.25;53.63;98833.88;5069713;28;20209;-61
2023/08/03 01:10:24;;;;;;;1.75;1.58;;;;;;;21.23;54.12;98827.91;5061366;28;20222;-60
2023/08/03 01:12:52;;;;;;;1.65;1.55;;;;;;;21.23;54.19;98818.25;5060875;28;20201;-60
2023/08/03 01:15:20;;;;;;;1.70;1.60;;;;;;;21.23;54.09;98801.72;5067170;28;20571;-59
2023/08/03 01:17:50;;;;;;;2.00;1.80;;;;;;;21.25;54.15;98812.09;5066178;28;20259;-59
2023/08/03 01:20:19;;;;;;;3.55;1.65;;;;;;;21.21;54.08;98809.69;5060762;28;20205;-59
2023/08/03 01:22:49;;;;;;;4.45;1.85;;;;;;;21.21;54.25;98801.84;5066708;28;20739;-60
2023/08/03 01:25:17;;;;;;;2.47;1.60;;;;;;;21.23;54.10;98813.00;5066054;28;20249;-60
2023/08/03 01:27:47;;;;;;;2.72;1.88;;;;;;;21.21;53.96;98804.47;5068192;28;20653;-60
2023/08/03 01:30:15;;;;;;;2.92;1.75;;;;;;;21.22;53.79;98816.59;5062562;28;20208;-61
2023/08/03 01:32:43;;;;;;;4.40;1.80;;;;;;;21.21;53.89;98814.94;5059291;28;20209;-60
2023/08/03 01:35:12;;;;;;;11.13;1.73;;;;;;;21.23;53.89;98796.47;5065030;28;20208;-61
2023/08/03 01:37:40;;;;;;;2.92;1.90;;;;;;;21.20;53.81;98791.44;5069886;28;20295;-61
2023/08/03 01:40:11;;;;;;;2.92;1.90;;;;;;;21.17;53.52;98792.53;5073543;28;20269;-65
2023/08/03 01:42:40;;;;;;;2.92;1.50;;;;;;;21.14;53.48;98784.91;5071088;28;20209;-63
2023/08/03 01:45:09;;;;;;;2.55;1.70;;;;;;;21.12;53.81;98786.78;5071845;28;20251;-62
2023/08/03 01:47:37;;;;;;;1.83;1.63;;;;;;;21.08;53.59;98780.13;5070851;28;20706;-63
2023/08/03 01:50:06;;;;;;;3.25;1.88;;;;;;;21.05;53.88;98776.91;5072752;28;20304;-63
2023/08/03 01:52:34;;;;;;;3.55;1.80;;;;;;;21.01;54.02;98771.06;5068553;28;20225;-63
2023/08/03 01:55:02;;;;;;;2.35;2.15;;;;;;;20.98;54.29;98769.50;5064341;28;20209;-63
2023/08/03 01:57:31;;;;;;;5.22;1.95;;;;;;;20.98;54.62;98779.13;5070555;28;20216;-63
2023/08/03 01:59:59;;;;;;;2.22;1.90;;;;;;;20.94;54.48;98760.19;5070238;28;20204;-62
2023/08/03 02:02:27;;;;;;;2.35;1.95;;;;;;;20.95;54.94;98766.25;5067290;28;20289;-63
2023/08/03 02:04:55;;;;;;;3.88;1.80;;;;;;;20.94;54.93;98762.81;5064601;28;20682;-63
2023/08/03 02:07:41;;;;;;;2.67;2.20;;;;;;;20.93;55.30;98768.19;5062103;28;20293;-62
2023/08/03 02:10:10;;;;;;;4.38;1.95;;;;;;;20.91;55.14;98763.06;5068747;28;20217;-63
2023/08/03 02:12:39;;;;;;;1.70;1.60;;;;;;;20.90;55.20;98765.78;5070031;28;20309;-62
2023/08/03 02:15:08;;;;;;;5.38;2.00;;;;;;;20.90;55.31;98786.72;5072010;28;20202;-62
2023/08/03 02:17:35;;;;;;;2.15;1.58;;;;;;;20.90;54.92;98778.88;5070477;28;20197;-63
2023/08/03 02:20:04;;;;;;;2.80;2.10;;;;;;;20.90;55.11;98773.63;5070925;28;20304;-65
2023/08/03 02:22:32;;;;;;;1.98;1.77;;;;;;;20.93;54.97;98773.41;5070245;28;20205;-62
2023/08/03 02:25:00;;;;;;;2.03;1.83;;;;;;;20.93;55.18;98783.88;5067743;28;20237;-63
2023/08/03 02:27:28;;;;;;;3.75;2.03;;;;;;;20.93;55.24;98769.00;5067906;28;20292;-62
2023/08/03 02:29:57;;;;;;;1.80;1.63;;;;;;;20.94;55.19;98760.19;5071951;28;20213;-63
2023/08/03 02:32:27;;;;;;;6.32;2.00;;;;;;;20.95;54.94;98759.25;5070155;28;20539;-63
2023/08/03 02:34:55;;;;;;;3.22;1.92;;;;;;;20.96;54.95;98753.06;5072212;28;20731;-64
2023/08/03 02:37:23;;;;;;;2.70;2.00;;;;;;;20.99;55.25;98762.50;5069493;28;21154;-62
2023/08/03 02:39:51;;;;;;;2.45;1.67;;;;;;;20.98;55.24;98781.75;5069671;28;20259;-62
2023/08/03 02:42:19;;;;;;;2.60;2.25;;;;;;;20.98;55.46;98784.38;5067114;28;20197;-63
2023/08/03 02:44:47;;;;;;;2.22;1.90;;;;;;;20.96;55.83;98765.34;5064303;28;20642;-63
2023/08/03 02:47:16;;;;;;;1.92;1.60;;;;;;;20.93;55.71;98784.72;5063850;28;20723;-62
2023/08/03 02:49:44;;;;;;;3.25;1.92;;;;;;;20.88;55.67;98765.09;5066492;28;20194;-63
2023/08/03 02:52:12;;;;;;;3.08;2.00;;;;;;;20.89;55.95;98758.88;5070126;28;20450;-62
2023/08/03 02:54:40;;;;;;;3.03;1.50;;;;;;;20.88;55.78;98754.59;5066304;28;20284;-62
2023/08/03 02:57:08;;;;;;;2.85;1.80;;;;;;;20.88;55.96;98786.03;5061227;28;20205;-62
2023/08/03 02:59:36;;;;;;;4.05;2.22;;;;;;;20.89;55.53;98787.69;5065594;28;20626;-63
2023/08/03 03:02:04;;;;;;;2.90;1.88;;;;;;;20.87;55.55;98815.75;5068505;28;20208;-64
2023/08/03 03:04:34;;;;;;;1.60;1.50;;;;;;;20.85;55.57;98817.66;5066008;28;20205;-63
2023/08/03 03:07:02;;;;;;;2.35;1.73;;;;;;;20.85;55.54;98822.91;5068972;28;20213;-64
2023/08/03 03:09:29;;;;;;;1.90;1.70;;;;;;;20.83;55.75;98848.34;5070247;28;20205;-63
2023/08/03 03:11:57;;;;;;;2.08;1.73;;;;;;;20.84;55.76;98852.63;5070868;28;20217;-63
2023/08/03 03:14:25;;;;;;;3.28;1.70;;;;;;;20.83;55.46;98835.25;5070115;28;20834;-63
2023/08/03 03:16:53;;;;;;;2.30;1.90;;;;;;;20.80;55.73;98835.47;5062247;28;20205;-61
2023/08/03 03:19:21;;;;;;;3.53;1.70;;;;;;;20.77;55.87;98814.75;5063306;28;20197;-62
2023/08/03 03:21:50;;;;;;;2.20;1.63;;;;;;;20.79;56.07;98813.69;5069976;28;20669;-62
2023/08/03 03:24:18;;;;;;;1.98;1.80;;;;;;;20.80;55.57;98817.16;5069421;28;20662;-64
2023/08/03 03:26:46;;;;;;;2.60;1.80;;;;;;;20.80;55.74;98810.13;5069628;28;20316;-63
2023/08/03 03:29:14;;;;;;;3.00;1.88;;;;;;;20.81;55.38;98790.03;5068781;28;20205;-64
2023/08/03 03:31:42;;;;;;;2.20;1.73;;;;;;;20.80;55.50;98797.03;5070601;28;20561;-63
2023/08/03 03:34:11;;;;;;;2.15;1.70;;;;;;;20.83;55.74;98788.13;5064207;28;20208;-62
2023/08/03 03:36:39;;;;;;;1.83;1.65;;;;;;;20.82;55.61;98762.91;5065200;28;20201;-62
2023/08/03 03:39:08;;;;;;;2.88;1.77;;;;;;;20.80;55.66;98715.88;5066330;28;20296;-64
2023/08/03 03:41:36;;;;;;;1.73;1.45;;;;;;;20.77;55.62;98632.38;5070291;28;20259;-64
2023/08/03 03:44:04;;;;;;;2.83;2.05;;;;;;;20.74;55.45;98643.06;5069968;28;20200;-63
2023/08/03 03:46:32;;;;;;;2.38;2.00;;;;;;;20.71;55.89;98638.88;5067427;28;20240;-62
2023/08/03 03:49:00;;;;;;;2.80;1.75;;;;;;;20.72;55.58;98597.81;5068288;28;20560;-63
2023/08/03 03:51:28;;;;;;;2.65;1.83;;;;;;;20.72;55.76;98651.00;5064044;28;20649;-62
2023/08/03 03:53:56;;;;;;;3.90;1.63;;;;;;;20.74;55.93;98724.22;5069708;28;20212;-63
2023/08/03 03:56:25;;;;;;;1.70;1.60;;;;;;;20.78;56.03;98775.38;5065455;28;20209;-64
2023/08/03 03:58:53;;;;;;;6.60;1.88;;;;;;;20.80;56.08;98788.34;5060564;28;20228;-62
2023/08/03 04:01:21;;;;;;;2.63;1.70;;;;;;;20.81;56.31;98818.84;5064320;28;20254;-63
2023/08/03 04:03:49;;;;;;;3.75;1.75;;;;;;;20.84;56.37;98795.03;5065641;28;20201;-63
2023/08/03 04:06:17;;;;;;;2.00;1.80;;;;;;;20.86;56.10;98795.75;5065057;28;20201;-63
2023/08/03 04:08:45;;;;;;;2.08;1.52;;;;;;;20.90;56.13;98792.78;5067003;28;20215;-61
2023/08/03 04:11:13;;;;;;;4.20;1.58;;;;;;;20.96;55.82;98789.72;5070125;28;20208;-59
2023/08/03 04:13:42;;;;;;;3.28;1.83;;;;;;;21.04;55.67;98798.81;5067412;28;20219;-60
2023/08/03 04:16:10;;;;;;;2.65;1.90;;;;;;;21.05;55.42;98792.59;5069981;28;20212;-60
2023/08/03 04:18:39;;;;;;;2.50;1.70;;;;;;;21.04;55.33;98791.78;5067359;28;20235;-61
2023/08/03 04:21:07;;;;;;;2.88;1.73;;;;;;;21.04;55.44;98783.09;5069172;28;20606;-61
2023/08/03 04:23:35;;;;;;;2.33;1.77;;;;;;;21.06;55.72;98770.69;5061423;28;21666;-61
2023/08/03 04:26:03;;;;;;;3.92;2.10;;;;;;;21.05;55.78;98769.88;5068503;28;20243;-60
2023/08/03 04:28:31;;;;;;;3.97;2.03;;;;;;;21.04;55.74;98788.34;5068970;28;20657;-60
2023/08/03 04:31:01;;;;;;;2.25;1.80;;;;;;;21.05;55.66;98809.16;5069506;28;20724;-60
2023/08/03 04:33:29;;;;;;;6.35;2.00;;;;;;;21.09;55.52;98813.22;5063394;28;20240;-62
2023/08/03 04:35:56;;;;;;;2.58;1.83;;;;;;;21.15;55.46;98804.91;5067571;28;20201;-62
2023/08/03 04:38:25;;;;;;;2.45;1.85;;;;;;;21.21;55.38;98808.88;5066921;28;20206;-63
2023/08/03 04:40:53;;;;;;;2.70;1.50;;;;;;;21.27;55.19;98802.31;5065555;28;20201;-62
2023/08/03 04:43:21;;;;;;;2.53;1.50;;;;;;;21.30;55.31;98817.81;5067233;28;20193;-62
2023/08/03 04:45:49;;;;;;;2.40;1.77;;;;;;;21.32;55.11;98806.28;5068195;28;20649;-62
2023/08/03 04:48:21;;;;;;;5.05;1.88;;;;;;;21.34;54.91;98814.03;5069873;28;20204;-62
2023/08/03 04:50:49;;;;;;;2.30;1.60;;;;;;;21.34;55.23;98807.00;5060872;28;20201;-63
2023/08/03 04:53:16;;;;;;;2.50;1.50;;;;;;;21.40;55.43;98809.16;5066786;28;20708;-62
2023/08/03 04:55:45;;;;;;;4.03;2.00;;;;;;;21.45;55.10;98819.28;5067244;28;20206;-63
2023/08/03 04:58:13;;;;;;;3.05;1.48;;;;;;;21.51;55.04;98831.13;5064145;28;20201;-62
2023/08/03 05:00:41;;;;;;;2.42;1.52;;;;;;;21.53;54.91;98810.84;5067250;28;20374;-64
2023/08/03 05:03:09;;;;;;;2.72;2.15;;;;;;;21.59;54.83;98832.19;5064736;28;20557;-63
2023/08/03 05:05:38;;;;;;;1.70;1.60;;;;;;;21.67;54.70;98836.84;5067888;28;20359;-62
2023/08/03 05:08:06;;;;;;;2.58;1.85;;;;;;;21.77;54.77;98836.97;5069810;28;20294;-62
2023/08/03 05:10:38;;;;;;;3.33;1.58;;;;;;;21.84;54.37;98846.03;5061959;28;20800;-63
2023/08/03 05:13:07;;;;;;;3.15;1.77;;;;;;;21.85;54.33;98851.16;5062944;28;20233;-64
2023/08/03 05:15:35;;;;;;;2.80;1.85;;;;;;;21.80;54.62;98842.81;5066629;28;20216;-63
2023/08/03 05:18:04;;;;;;;2.47;1.73;;;;;;;21.75;54.72;98838.88;5067527;28;20198;-63
2023/08/03 05:20:32;;;;;;;3.10;1.70;;;;;;;21.69;55.12;98832.31;5067539;28;20210;-63
2023/08/03 05:23:02;;;;;;;2.70;1.90;;;;;;;21.63;55.56;98848.53;5074169;28;20205;-63
2023/08/03 05:25:30;;;;;;;8.35;1.75;;;;;;;21.58;55.72;98833.16;5071704;28;20721;-63
2023/08/03 05:27:58;;;;;;;2.85;1.75;;;;;;;21.56;56.04;98829.78;5069648;28;20209;-63
2023/08/03 05:30:26;;;;;;;2.08;1.85;;;;;;;21.53;56.24;98837.88;5067927;28;20218;-63
2023/08/03 05:32:54;;;;;;;6.80;1.60;;;;;;;21.50;56.49;98838.13;5071600;28;20752;-64
2023/08/03 05:35:22;;;;;;;3.58;1.88;;;;;;;21.46;56.80;98844.53;5065892;28;20224;-63
2023/08/03 05:37:52;;;;;;;2.53;1.75;;;;;;;21.43;57.05;98853.50;5072656;28;20198;-62
2023/08/03 05:40:22;;;;;;;2.17;1.38;;;;;;;21.40;56.99;98845.84;5072844;28;20202;-61
2023/08/03 05:42:50;;;;;;;4.47;1.80;;;;;;;21.39;57.45;98830.22;5068621;28;20202;-67
2023/08/03 05:45:34;;;;;;;3.95;1.75;;;;;;;21.41;57.59;98823.09;5068122;28;20212;-64
2023/08/03 05:48:04;;;;;;;2.50;1.52;;;;;;;21.46;57.44;98806.06;5063843;28;20193;-63
2023/08/03 05:50:32;;;;;;;3.92;1.70;;;;;;;21.51;57.52;98838.97;5058708;28;20635;-66
2023/08/03 05:53:00;;;;;;;1.95;1.70;;;;;;;21.55;57.55;98828.13;5070503;28;20233;-63
2023/08/03 05:55:30;;;;;;;3.58;1.70;;;;;;;21.59;57.52;98832.19;5061922;28;20310;-64
2023/08/03 05:57:58;;;;;;;3.13;1.77;;;;;;;21.63;57.59;98828.38;5069173;28;20209;-63
2023/08/03 06:00:29;;;;;;;4.47;1.70;;;;;;;21.70;57.43;98845.31;5070141;28;20588;-64
2023/08/03 06:02:57;;;;;;;3.03;1.80;;;;;;;21.79;57.38;98861.28;5060408;28;20201;-64
2023/08/03 06:05:42;;;;;;;4.60;1.95;;;;;;;21.83;57.25;98878.44;5066655;28;20213;-64
2023/08/03 06:08:18;;;;;;;2.85;1.70;;;;;;;21.94;57.22;98870.59;5069304;28;20205;-64
2023/08/03 06:10:50;;;;;;;3.60;2.20;;;;;;;22.31;56.67;98886.13;5066863;28;20924;-65
2023/08/03 06:13:20;;;;;;;3.47;1.80;;;;;;;22.97;54.81;98901.91;5068085;28;20232;-64
2023/08/03 06:15:48;;;;;;;1.98;1.70;;;;;;;23.10;53.88;98897.31;5068920;28;20201;-66
2023/08/03 06:18:18;;;;;;;2.38;1.77;;;;;;;23.04;54.07;98905.69;5069358;28;20198;-65
2023/08/03 06:20:47;;;;;;;3.20;1.63;;;;;;;22.89;54.08;98920.88;5066115;28;20661;-63
2023/08/03 06:23:18;;;;;;;4.70;1.80;;;;;;;22.67;54.98;98921.75;5066059;28;20201;-65
2023/08/03 06:25:48;;;;;;;1.95;1.50;;;;;;;22.52;55.73;98922.97;5071040;28;20246;-65
2023/08/03 06:28:18;;;;;;;1.95;1.40;;;;;;;22.45;55.88;98917.38;5061494;28;20597;-66
2023/08/03 06:30:48;;;;;;;4.00;1.40;;;;;;;22.41;56.00;98915.94;5067785;28;20201;-66
2023/08/03 06:33:18;;;;;;;6.22;1.88;;;;;;;22.37;56.03;98915.34;5070177;28;20632;-67
2023/08/03 06:35:47;;;;;;;3.03;1.50;;;;;;;22.37;56.06;98917.13;5069973;28;20674;-66
2023/08/03 06:38:17;;;;;;;5.35;1.50;;;;;;;22.36;56.32;98908.44;5069939;28;20239;-66
2023/08/03 06:40:48;;;;;;;2.17;1.58;;;;;;;22.40;56.34;98911.66;5069347;28;20215;-66
2023/08/03 06:43:16;;;;;;;3.25;1.73;;;;;;;22.41;56.30;98884.44;5067974;28;20247;-67
2023/08/03 06:45:45;;;;;;;4.32;1.90;;;;;;;22.48;56.11;98900.56;5072741;28;20202;-65
2023/08/03 06:48:14;;;;;;;4.47;1.55;;;;;;;22.59;55.85;98918.91;5070436;28;20657;-66
2023/08/03 06:50:44;;;;;;;2.20;1.35;;;;;;;22.75;55.36;98905.38;5069953;28;20259;-66
2023/08/03 06:53:13;;;;;;;1.48;1.30;;;;;;;23.01;54.90;98888.38;5068526;28;20658;-68
2023/08/03 06:55:44;;;;;;;5.78;1.98;;;;;;;23.27;53.98;98888.03;5063328;28;20800;-66
2023/08/03 06:58:13;;;;;;;3.33;1.67;;;;;;;23.49;53.21;98881.84;5067325;28;20193;-67
2023/08/03 07:00:41;;;;;;;4.88;1.70;;;;;;;23.55;53.01;98866.38;5066430;28;20254;-67
2023/08/03 07:03:10;;;;;;;1.75;1.33;;;;;;;24.07;51.85;98788.28;5068110;28;20201;-67
2023/08/03 07:05:39;;;;;;;2.95;1.50;;;;;;;25.10;49.32;98792.31;5063395;28;20206;-66
2023/08/03 07:08:07;;;;;;;2.33;1.60;;;;;;;25.45;48.09;98799.63;5064186;28;20205;-63
2023/08/03 07:10:36;;;;;;;3.33;1.98;;;;;;;25.32;47.98;98843.91;5060454;28;20414;-65
2023/08/03 07:13:05;;;;;;;4.45;2.03;;;;;;;25.03;48.79;98897.44;5068971;28;20669;-64
2023/08/03 07:15:35;;;;;;;3.60;1.83;;;;;;;25.03;48.89;98912.41;5063403;28;20225;-65
2023/08/03 07:18:04;;;;;;;4.93;2.22;;;;;;;25.18;48.32;98923.41;5062091;28;20233;-62
2023/08/03 07:20:32;;;;;;;3.45;2.30;;;;;;;25.37;48.00;98914.66;5066199;28;20654;-64
2023/08/03 07:23:00;;;;;;;4.25;2.28;;;;;;;25.28;48.41;98911.09;5060695;28;20233;-63
2023/08/03 07:25:28;;;;;;;3.10;2.40;;;;;;;25.08;48.24;98899.69;5062758;28;20225;-65
2023/08/03 07:27:56;;;;;;;3.00;1.90;;;;;;;24.76;49.53;98894.66;5060162;28;20209;-64
2023/08/03 07:30:27;;;;;;;4.70;1.98;;;;;;;24.47;50.55;98871.69;5062320;28;20236;-65
2023/08/03 07:33:00;;;;;;;4.15;2.53;;;;;;;24.25;50.80;98895.56;5066668;28;20288;-66
2023/08/03 07:35:28;;;;;;;1.95;1.75;;;;;;;24.05;51.89;98947.31;5065343;28;20240;-66
2023/08/03 07:37:56;;;;;;;3.83;1.60;;;;;;;23.79;52.36;98979.25;5068820;28;20205;-65
2023/08/03 07:40:24;;;;;;;4.38;2.55;;;;;;;23.68;52.93;98958.28;5068355;28;20271;-66
2023/08/03 07:42:52;;;;;;;2.08;1.60;;;;;;;23.67;52.66;98950.50;5070061;28;20650;-67
2023/08/03 07:45:21;;;;;;;2.55;1.45;;;;;;;23.56;53.15;98954.00;5065208;28;20287;-67
2023/08/03 07:47:52;;;;;;;3.80;1.40;;;;;;;23.52;53.49;98929.75;5068576;28;20202;-66
2023/08/03 07:50:21;;;;;;;2.40;1.65;;;;;;;23.54;53.50;98945.41;5069064;28;20209;-66
2023/08/03 07:52:49;;;;;;;5.03;1.77;;;;;;;23.50;53.90;98950.09;5062373;28;20287;-65
2023/08/03 07:55:17;;;;;;;2.10;1.42;;;;;;;23.44;53.95;98958.47;5063614;28;20238;-65
2023/08/03 07:57:47;;;;;;;3.65;1.58;;;;;;;23.32;54.16;98985.78;5063629;28;20215;-66
2023/08/03 08:00:16;;;;;;;4.57;2.20;;;;;;;23.17;54.58;98981.75;5061428;28;20205;-61
2023/08/03 08:02:44;;;;;;;2.10;1.67;;;;;;;23.08;54.88;98952.63;5059113;28;20206;-61
2023/08/03 08:05:12;;;;;;;6.93;1.70;;;;;;;23.03;55.11;98904.88;5056642;28;20224;-62
2023/08/03 08:07:42;;;;;;;4.53;1.70;;;;;;;23.06;55.08;98912.50;5064560;28;20209;-63
2023/08/03 08:10:11;;;;;;;3.63;1.33;;;;;;;23.07;55.04;98935.19;5066529;28;20583;-61
2023/08/03 08:12:39;;;;;;;1.50;1.40;;;;;;;23.08;54.85;98922.88;5063096;28;20715;-69
2023/08/03 08:15:08;;;;;;;1.67;1.55;;;;;;;23.10;54.74;98928.84;5066139;28;20304;-64
2023/08/03 08:17:36;;;;;;;3.95;1.50;;;;;;;23.13;55.00;98939.94;5067377;28;20292;-63
2023/08/03 08:20:05;;;;;;;2.38;1.40;;;;;;;23.19;54.81;98938.59;5064366;28;20260;-64
2023/08/03 08:22:33;;;;;;;3.35;1.38;;;;;;;23.25;54.64;98963.56;5063147;28;20205;-63
2023/08/03 08:25:03;;;;;;;1.20;1.10;;;;;;;23.17;54.58;98998.34;5061079;28;20252;-62
2023/08/03 08:27:31;;;;;;;2.78;1.10;;;;;;;23.04;55.05;98993.22;5057432;28;20644;-61
2023/08/03 08:29:59;;;;;;;3.70;1.30;;;;;;;22.99;55.14;98977.00;5061191;28;20204;-61
2023/08/03 08:32:27;;;;;;;2.38;1.42;;;;;;;22.90;55.24;98965.44;5063284;28;20209;-66
2023/08/03 08:34:56;;;;;;;2.92;1.75;;;;;;;22.87;55.33;98959.59;5066308;28;20217;-62
2023/08/03 08:37:24;;;;;;;1.70;1.20;;;;;;;22.92;55.68;98948.72;5063886;28;20209;-61
2023/08/03 08:39:52;;;;;;;2.65;1.40;;;;;;;22.95;55.49;98951.94;5064385;28;20584;-63
2023/08/03 08:42:21;;;;;;;5.72;1.40;;;;;;;22.89;55.34;98973.41;5066386;28;20666;-62
2023/08/03 08:44:49;;;;;;;2.10;1.38;;;;;;;22.80;56.17;98980.25;5063836;28;20201;-61
2023/08/03 08:47:17;;;;;;;2.75;1.40;;;;;;;22.74;56.92;99012.22;5065865;28;20197;-59
2023/08/03 08:49:45;;;;;;;3.55;1.42;;;;;;;22.64;57.50;99021.78;5066322;28;20202;-63
2023/08/03 08:52:17;;;;;;;4.13;2.05;;;;;;;22.53;57.87;99019.97;5071813;28;20212;-62
2023/08/03 08:54:46;;;;;;;2.22;1.30;;;;;;;22.47;58.36;99030.97;5070152;28;20235;-60
2023/08/03 08:57:17;;;;;;;6.18;1.58;;;;;;;22.45;58.74;99004.00;5071813;28;20665;-61
2023/08/03 09:00:08;;;;;;;7.30;1.88;;;;;;;22.44;59.61;99067.94;5070889;28;20232;-61
2023/08/03 09:02:36;;;;;;;1.48;1.38;;;;;;;22.41;60.21;99078.69;5072418;28;20201;-60
2023/08/03 09:05:11;;;;;;;3.47;1.50;;;;;;;22.38;60.64;99047.41;5071827;28;20201;-61
2023/08/03 09:07:40;;;;;;;2.33;1.67;;;;;;;22.34;60.98;99046.81;5068221;28;20679;-61
2023/08/03 09:10:09;;;;;;;1.98;1.65;;;;;;;22.34;61.62;99014.47;5066672;28;20209;-66
2023/08/03 09:12:38;;;;;;;3.42;1.70;;;;;;;22.30;61.65;99034.88;5063774;28;20229;-61
2023/08/03 09:15:09;;;;;;;3.63;1.45;;;;;;;22.23;61.72;99085.31;5062782;28;20222;-61
2023/08/03 09:17:37;;;;;;;2.92;1.70;;;;;;;22.07;62.73;99091.69;5066558;28;20205;-62
2023/08/03 09:20:07;;;;;;;1.50;1.40;;;;;;;21.92;63.18;99112.00;5064201;28;20315;-64
2023/08/03 09:22:42;;;;;;;4.07;1.58;;;;;;;21.84;63.38;99068.94;5067654;28;20208;-63
2023/08/03 09:25:14;;;;;;;2.42;1.70;;;;;;;21.85;63.48;99086.34;5064071;28;20229;-63
2023/08/03 09:27:58;;;;;;;1.42;1.30;;;;;;;21.88;63.50;99054.66;5065010;28;20282;-64
2023/08/03 09:30:28;;;;;;;1.55;1.45;;;;;;;21.87;63.45;99022.34;5066782;28;20197;-62
2023/08/03 09:32:59;;;;;;;3.47;1.58;;;;;;;21.88;62.79;98987.31;5071893;28;20697;-66
2023/08/03 09:35:28;;;;;;;1.75;1.40;;;;;;;21.87;62.12;99003.13;5072591;28;20224;-63
2023/08/03 09:38:24;;;;;;;2.28;1.80;;;;;;;21.84;62.28;99006.00;5058046;28;20271;-63
2023/08/03 09:40:52;;;;;;;3.10;1.70;;;;;;;21.82;62.13;99094.44;5066387;28;20196;-62
2023/08/03 09:43:23;;;;;;;4.70;2.38;;;;;;;21.64;62.94;99088.75;5071129;28;20666;-63
2023/08/03 09:45:57;;;;;;;4.40;1.90;;;;;;;21.59;63.02;99070.72;5071628;28;20210;-62
2023/08/03 09:48:26;;;;;;;1.80;1.15;;;;;;;21.56;63.22;99065.72;5071260;28;20208;-63
2023/08/03 09:50:56;;;;;;;2.80;1.50;;;;;;;21.55;62.61;99085.00;5071449;28;20292;-63
2023/08/03 09:53:26;;;;;;;1.50;1.30;;;;;;;21.53;61.96;99097.38;5072948;28;20262;-64
2023/08/03 09:56:00;;;;;;;4.47;1.17;;;;;;;21.48;61.02;99067.22;5072048;28;20596;-62
2023/08/03 09:58:33;;;;;;;3.55;1.50;;;;;;;21.41;60.67;99056.34;5070796;28;20205;-63
2023/08/03 10:01:05;;;;;;;4.03;1.73;;;;;;;21.38;61.24;99004.13;5070131;28;20293;-63
2023/08/03 10:03:35;;;;;;;6.85;1.60;;;;;;;21.40;61.06;98969.03;5068764;28;20205;-62
2023/08/03 10:06:08;;;;;;;1.73;1.30;;;;;;;21.44;60.25;98996.69;5072772;28;20565;-61
2023/08/03 10:08:43;;;;;;;1.58;1.10;;;;;;;21.50;60.08;99094.97;5065075;28;20558;-60
2023/08/03 10:11:12;;;;;;;3.55;1.60;;;;;;;21.56;61.12;99181.06;5067290;28;20740;-62
2023/08/03 10:13:46;;;;;;;1.92;1.48;;;;;;;21.56;61.40;99191.53;5062520;28;20300;-61
2023/08/03 10:16:16;;;;;;;1.73;1.17;;;;;;;21.48;61.66;99182.56;5060690;28;20576;-62
2023/08/03 10:18:46;;;;;;;2.97;1.40;;;;;;;21.43;62.10;99183.72;5068392;28;20640;-62
2023/08/03 10:21:17;;;;;;;3.35;1.40;;;;;;;21.44;62.62;99192.41;5071564;28;20695;-61
2023/08/03 10:24:10;;;;;;;3.58;1.85;;;;;;;21.40;63.42;99136.75;5071654;28;20201;-63
2023/08/03 10:26:40;;;;;;;3.50;1.55;;;;;;;21.36;64.03;99082.88;5071223;28;21234;-64
2023/08/03 10:29:09;;;;;;;2.67;1.58;;;;;;;21.37;64.72;99047.03;5071695;28;20672;-63
2023/08/03 10:34:30;;;;;;;3.30;1.35;;;;;;;21.38;63.91;99114.22;5059436;27;1345874;-64
2023/08/03 10:36:59;;;;;;;1.80;1.23;;;;;;;21.36;63.65;99142.31;5100039;28;20201;-64
2023/08/03 10:39:47;;;;;;;4.82;1.70;;;;;;;21.36;63.40;99122.19;5100687;28;20200;-62
2023/08/03 10:42:28;;;;;;;2.42;1.75;;;;;;;21.37;63.41;99112.53;5101979;28;20527;-63
2023/08/03 10:45:26;;;;;;;2.47;1.42;;;;;;;21.36;63.93;99098.59;5101644;28;20200;-62
2023/08/03 10:47:55;;;;;;;4.15;1.40;;;;;;;21.35;63.41;99085.59;5103274;28;20204;-62
2023/08/03 10:50:59;;;;;;;4.88;1.58;;;;;;;21.33;64.18;99049.03;5100091;28;20658;-62
2023/08/03 10:53:27;;;;;;;5.63;1.73;;;;;;;21.40;64.67;99075.63;5099569;28;20236;-61
2023/08/03 10:56:07;;;;;;;2.88;1.67;;;;;;;21.53;64.52;99070.34;5102076;28;20196;-62
2023/08/03 10:58:47;;;;;;;3.63;1.92;;;;;;;21.68;64.41;99063.97;5105018;28;20635;-60
2023/08/03 11:01:22;;;;;;;1.73;1.63;;;;;;;21.78;64.33;99011.69;5096228;28;20351;-62
2023/08/03 11:03:50;;;;;;;3.70;1.55;;;;;;;21.78;64.41;99004.66;5099109;28;20200;-60
2023/08/03 11:06:21;;;;;;;3.60;1.75;;;;;;;21.75;65.01;99046.00;5099098;28;20735;-62
2023/08/03 11:08:49;;;;;;;4.63;1.95;;;;;;;21.74;65.32;99052.22;5089400;28;20204;-62
2023/08/03 11:11:22;;;;;;;4.40;2.35;;;;;;;21.69;66.31;99039.44;5104918;28;20208;-61
2023/08/03 11:13:50;;;;;;;4.90;1.92;;;;;;;21.64;66.52;99041.56;5096780;28;20938;-63
2023/08/03 11:16:19;;;;;;;4.68;1.60;;;;;;;21.61;66.54;99095.03;5105578;28;20571;-62
2023/08/03 11:18:48;;;;;;;4.18;2.03;;;;;;;21.51;66.33;99146.47;5095380;28;20283;-62
2023/08/03 11:21:16;;;;;;;2.28;1.60;;;;;;;21.37;66.72;99133.50;5093812;28;20204;-61
2023/08/03 11:23:45;;;;;;;2.10;1.48;;;;;;;21.25;66.65;99166.63;5099264;28;20705;-60
2023/08/03 11:26:13;;;;;;;2.08;1.50;;;;;;;21.15;67.25;99165.56;5102839;28;20212;-62
2023/08/03 11:28:42;;;;;;;2.88;1.85;;;;;;;21.06;67.68;99164.44;5095878;28;20353;-61
2023/08/03 11:31:17;;;;;;;2.08;1.88;;;;;;;20.99;67.79;99207.72;5103839;28;20200;-60
2023/08/03 11:33:51;;;;;;;2.28;1.80;;;;;;;20.91;68.09;99189.03;5101537;28;20241;-61
2023/08/03 11:36:19;;;;;;;5.50;2.22;;;;;;;20.86;68.23;99184.13;5102690;28;20579;-61
2023/08/03 11:38:51;;;;;;;2.72;2.05;;;;;;;20.78;68.39;99189.03;5104213;28;20207;-61
2023/08/03 11:41:21;;;;;;;3.28;2.00;;;;;;;20.71;68.81;99162.44;5100972;28;20263;-60
2023/08/03 11:43:59;;;;;;;2.35;1.80;;;;;;;20.68;68.26;99152.16;5087741;28;20204;-61
2023/08/03 11:46:28;;;;;;;2.40;2.20;;;;;;;20.62;68.43;99160.44;5088745;28;20209;-61
2023/08/03 11:48:57;;;;;;;6.15;2.08;;;;;;;20.59;68.98;99147.56;5091285;28;20613;-60